Time;durP1;ratioP1;P1;durP2;ratioP2;P2;SDS_P1;SDS_P2;PMS_P1;PMS_P2;Temp;Humidity;BMP_temperature;BMP_pressure;BME280_temperature;BME280_humidity;BME280_pressure;Samples;Min_cycle;Max_cycle;Signal;HPM_P1;HPM_P2
2022/07/24 00:00:30;;;;;;;6.65;5.80;;;19.30;99.90;;;;;;5116111;28;20073;-54
2022/07/24 00:02:55;;;;;;;7.60;5.90;;;19.30;99.90;;;;;;5115722;28;20084;-52
2022/07/24 00:05:21;;;;;;;6.60;5.90;;;19.20;99.90;;;;;;5115616;28;20039;-54
2022/07/24 00:07:47;;;;;;;6.72;5.82;;;19.20;99.90;;;;;;5115785;28;20024;-53
2022/07/24 00:10:12;;;;;;;7.20;5.90;;;19.20;99.90;;;;;;5116044;28;20030;-54
2022/07/24 00:12:38;;;;;;;7.35;6.22;;;19.10;99.90;;;;;;5115350;28;20062;-55
2022/07/24 00:15:05;;;;;;;7.43;6.10;;;19.00;99.90;;;;;;5115993;28;20034;-53
2022/07/24 00:17:31;;;;;;;6.05;5.45;;;18.90;99.90;;;;;;5115446;28;20036;-55
2022/07/24 00:19:56;;;;;;;7.05;5.50;;;18.90;99.90;;;;;;5115249;28;20049;-53
2022/07/24 00:22:23;;;;;;;8.80;6.65;;;18.90;99.90;;;;;;5115705;28;20077;-53
2022/07/24 00:24:49;;;;;;;13.70;6.88;;;18.80;99.90;;;;;;5115382;28;20107;-53
2022/07/24 00:27:15;;;;;;;7.22;6.10;;;18.70;99.90;;;;;;5115464;28;20105;-53
2022/07/24 00:29:41;;;;;;;7.07;6.25;;;18.60;99.90;;;;;;5115432;28;20023;-54
2022/07/24 00:32:07;;;;;;;6.97;6.18;;;18.60;99.90;;;;;;5115246;28;20519;-53
2022/07/24 00:34:32;;;;;;;8.75;6.10;;;18.60;99.90;;;;;;5114820;28;20057;-53
2022/07/24 00:36:58;;;;;;;7.68;5.80;;;18.60;99.90;;;;;;5115264;28;20389;-54
2022/07/24 00:39:24;;;;;;;6.82;5.88;;;18.50;99.90;;;;;;5115053;28;20031;-52
2022/07/24 00:41:52;;;;;;;7.28;5.78;;;18.50;99.90;;;;;;5115139;28;20068;-55
2022/07/24 00:44:19;;;;;;;6.85;6.07;;;18.40;99.90;;;;;;5114912;28;20035;-55
2022/07/24 00:46:46;;;;;;;8.05;5.80;;;18.40;99.90;;;;;;5114705;28;20057;-53
2022/07/24 00:49:15;;;;;;;6.60;5.60;;;18.40;99.90;;;;;;5114644;28;20472;-54
2022/07/24 00:51:42;;;;;;;6.82;5.45;;;18.30;99.90;;;;;;5114787;28;20027;-54
2022/07/24 00:54:10;;;;;;;8.43;5.97;;;18.20;99.90;;;;;;5114882;28;20557;-54
2022/07/24 00:56:36;;;;;;;6.32;5.45;;;18.20;99.90;;;;;;5114947;28;20547;-53
2022/07/24 00:59:02;;;;;;;7.45;5.60;;;18.20;99.90;;;;;;5114630;28;20043;-53
2022/07/24 01:01:29;;;;;;;7.35;5.85;;;18.20;99.90;;;;;;5114834;28;20510;-52
2022/07/24 01:03:55;;;;;;;7.30;5.80;;;18.10;99.90;;;;;;5114463;28;20031;-54
2022/07/24 01:06:22;;;;;;;6.45;5.78;;;18.10;99.90;;;;;;5113272;28;20492;-54
2022/07/24 01:08:49;;;;;;;8.00;5.57;;;18.10;99.90;;;;;;5114621;28;20031;-54
2022/07/24 01:11:15;;;;;;;6.45;5.40;;;18.00;99.90;;;;;;5114470;28;20027;-55
2022/07/24 01:13:41;;;;;;;6.57;5.88;;;18.00;99.90;;;;;;5114657;28;20034;-54
2022/07/24 01:16:10;;;;;;;6.32;5.28;;;18.00;99.90;;;;;;5114486;28;20020;-53
2022/07/24 01:18:36;;;;;;;6.85;5.50;;;18.00;99.90;;;;;;5114004;28;20027;-54
2022/07/24 01:21:06;;;;;;;6.82;5.22;;;18.00;99.90;;;;;;5114329;28;20102;-53
2022/07/24 01:23:32;;;;;;;5.93;5.32;;;17.90;99.90;;;;;;5114564;28;20476;-53
2022/07/24 01:25:58;;;;;;;5.80;5.20;;;18.00;99.90;;;;;;5114172;28;20031;-55
2022/07/24 01:28:24;;;;;;;7.85;5.47;;;18.00;99.90;;;;;;5114079;28;20024;-52
2022/07/24 01:30:49;;;;;;;5.25;4.82;;;17.90;99.90;;;;;;5095914;28;20066;-53
2022/07/24 01:33:15;;;;;;;8.02;5.47;;;17.80;99.90;;;;;;5113974;28;20026;-52
2022/07/24 01:35:42;;;;;;;6.15;5.53;;;17.70;99.90;;;;;;5114027;28;20023;-54
2022/07/24 01:38:09;;;;;;;7.03;5.65;;;17.60;99.90;;;;;;5113840;28;20035;-54
2022/07/24 01:40:35;;;;;;;6.47;5.70;;;17.50;99.90;;;;;;5095782;28;20032;-52
2022/07/24 01:43:01;;;;;;;9.27;6.50;;;17.50;99.90;;;;;;5114187;28;20023;-54
2022/07/24 01:45:27;;;;;;;5.88;5.38;;;17.50;99.90;;;;;;5113809;28;20059;-54
2022/07/24 01:47:52;;;;;;;6.68;6.07;;;17.60;99.90;;;;;;5113378;28;20110;-54
2022/07/24 01:50:21;;;;;;;6.55;5.80;;;17.50;99.90;;;;;;5113662;28;20031;-53
2022/07/24 01:52:47;;;;;;;8.27;6.40;;;17.50;99.90;;;;;;5113953;28;20502;-52
2022/07/24 01:55:12;;;;;;;8.00;5.50;;;17.50;99.90;;;;;;5113563;28;20023;-54
2022/07/24 01:57:39;;;;;;;7.18;5.82;;;17.40;99.90;;;;;;5113911;28;20037;-52
2022/07/24 02:00:10;;;;;;;5.63;5.13;;;17.30;99.90;;;;;;5113665;28;20073;-53
2022/07/24 02:02:36;;;;;;;7.93;5.82;;;17.40;99.90;;;;;;5113081;28;20106;-54
2022/07/24 02:05:02;;;;;;;6.53;5.88;;;17.30;99.90;;;;;;5113425;28;20106;-53
2022/07/24 02:07:28;;;;;;;5.88;5.10;;;17.20;99.90;;;;;;5113738;28;20038;-53
2022/07/24 02:09:53;;;;;;;5.72;5.22;;;17.20;99.90;;;;;;5095370;28;20019;-54
2022/07/24 02:12:19;;;;;;;7.70;5.70;;;17.20;99.90;;;;;;5113126;28;20084;-52
2022/07/24 02:14:45;;;;;;;6.15;5.15;;;17.30;99.90;;;;;;5113322;28;20102;-52
2022/07/24 02:17:10;;;;;;;6.72;5.47;;;17.20;99.90;;;;;;5094941;28;20031;-52
2022/07/24 02:19:36;;;;;;;5.25;4.65;;;17.20;99.90;;;;;;5094764;28;20028;-54
2022/07/24 02:22:03;;;;;;;6.07;5.10;;;17.10;99.90;;;;;;5113100;28;20034;-51
2022/07/24 02:24:28;;;;;;;5.25;4.75;;;17.10;99.90;;;;;;5113056;28;20038;-49
2022/07/24 02:26:54;;;;;;;6.70;5.28;;;17.10;99.90;;;;;;5113024;28;20036;-52
2022/07/24 02:29:20;;;;;;;6.25;5.65;;;17.00;99.90;;;;;;5113117;28;20031;-54
2022/07/24 02:31:45;;;;;;;5.30;4.80;;;17.00;99.90;;;;;;5112994;28;20114;-53
2022/07/24 02:34:11;;;;;;;6.65;4.70;;;17.00;99.90;;;;;;5112928;28;20076;-51
2022/07/24 02:36:37;;;;;;;5.70;4.90;;;17.00;99.90;;;;;;5112746;28;20086;-52
2022/07/24 02:39:03;;;;;;;6.50;4.95;;;17.00;99.90;;;;;;5113092;28;20500;-54
2022/07/24 02:41:29;;;;;;;8.23;5.20;;;17.00;99.90;;;;;;5112635;28;20031;-54
2022/07/24 02:43:55;;;;;;;7.90;4.47;;;16.90;99.90;;;;;;5112906;28;20387;-51
2022/07/24 02:46:21;;;;;;;5.43;4.75;;;16.90;99.90;;;;;;5112216;28;20156;-53
2022/07/24 02:48:46;;;;;;;6.22;4.28;;;16.90;99.90;;;;;;5112598;28;20023;-55
2022/07/24 02:51:12;;;;;;;4.45;4.03;;;16.90;99.90;;;;;;5113104;28;20034;-54
2022/07/24 02:53:38;;;;;;;5.65;4.25;;;17.00;99.90;;;;;;5112570;28;20023;-50
2022/07/24 02:56:04;;;;;;;5.10;4.35;;;17.00;99.90;;;;;;5112447;28;20034;-55
2022/07/24 02:58:29;;;;;;;6.18;4.32;;;17.00;99.90;;;;;;5112608;28;20039;-53
2022/07/24 03:00:55;;;;;;;5.00;4.20;;;17.00;99.90;;;;;;5112224;28;20019;-54
2022/07/24 03:03:21;;;;;;;5.28;3.75;;;17.00;99.90;;;;;;5112362;28;20107;-53
2022/07/24 03:05:47;;;;;;;5.88;3.80;;;17.10;99.90;;;;;;5112312;28;20031;-53
2022/07/24 03:08:12;;;;;;;4.45;3.88;;;17.10;99.90;;;;;;5112782;28;20020;-53
2022/07/24 03:10:38;;;;;;;7.95;3.60;;;17.10;99.90;;;;;;5112366;28;20051;-54
2022/07/24 03:13:05;;;;;;;5.30;3.60;;;17.20;99.90;;;;;;5112141;28;20030;-55
2022/07/24 03:15:31;;;;;;;5.95;3.70;;;17.20;99.90;;;;;;5112390;28;20027;-51
2022/07/24 03:17:57;;;;;;;5.97;3.58;;;17.20;99.90;;;;;;5112328;28;20050;-54
2022/07/24 03:20:25;;;;;;;4.82;3.65;;;17.10;99.90;;;;;;5112242;28;20051;-54
2022/07/24 03:22:51;;;;;;;4.03;3.58;;;17.20;99.90;;;;;;5112144;28;20023;-53
2022/07/24 03:25:18;;;;;;;5.05;3.50;;;17.20;99.90;;;;;;5112468;28;20034;-52
2022/07/24 03:27:46;;;;;;;5.50;3.67;;;17.20;99.90;;;;;;5111843;28;20043;-55
2022/07/24 03:30:12;;;;;;;4.55;3.38;;;17.20;99.90;;;;;;5113660;28;20094;-53
2022/07/24 03:32:38;;;;;;;5.25;3.50;;;17.20;99.90;;;;;;5116644;28;20420;-53
2022/07/24 03:35:04;;;;;;;5.03;3.70;;;17.10;99.90;;;;;;5116268;28;20477;-53
2022/07/24 03:37:30;;;;;;;5.43;3.60;;;17.00;99.90;;;;;;5116364;28;20048;-54
2022/07/24 03:39:56;;;;;;;5.03;3.55;;;17.10;99.90;;;;;;5116123;28;20058;-51
2022/07/24 03:42:22;;;;;;;4.53;3.58;;;17.00;99.90;;;;;;5115830;28;20459;-54
2022/07/24 03:44:48;;;;;;;4.82;3.63;;;17.00;99.90;;;;;;5116210;28;20420;-52
2022/07/24 03:47:13;;;;;;;6.57;3.90;;;17.00;99.90;;;;;;5116245;28;20039;-54
2022/07/24 03:49:39;;;;;;;5.05;3.33;;;17.10;99.90;;;;;;5116066;28;20024;-53
2022/07/24 03:52:05;;;;;;;4.70;3.83;;;17.10;99.90;;;;;;5116236;28;20035;-54
2022/07/24 03:54:30;;;;;;;4.45;3.25;;;17.10;99.90;;;;;;5097555;28;20085;-50
2022/07/24 03:56:56;;;;;;;5.25;3.83;;;17.00;99.90;;;;;;5115731;28;20032;-54
2022/07/24 03:59:22;;;;;;;6.80;3.80;;;17.00;99.90;;;;;;5115999;28;20019;-54
2022/07/24 04:01:48;;;;;;;4.25;3.50;;;17.00;99.90;;;;;;5116277;28;20431;-53
2022/07/24 04:04:13;;;;;;;4.78;3.72;;;17.00;99.90;;;;;;5115757;28;20024;-55
2022/07/24 04:06:42;;;;;;;4.55;3.42;;;17.00;99.90;;;;;;5115789;28;20092;-56
2022/07/24 04:09:08;;;;;;;4.15;3.70;;;17.00;99.90;;;;;;5115603;28;20104;-54
2022/07/24 04:11:34;;;;;;;6.18;3.63;;;16.90;99.90;;;;;;5115487;28;20114;-53
2022/07/24 04:14:00;;;;;;;4.82;3.35;;;16.90;99.90;;;;;;5115934;28;20050;-54
2022/07/24 04:16:26;;;;;;;6.65;3.33;;;16.90;99.90;;;;;;5097328;28;20592;-55
2022/07/24 04:18:52;;;;;;;5.43;3.70;;;16.90;99.90;;;;;;5115514;28;20156;-53
2022/07/24 04:21:18;;;;;;;6.43;3.30;;;16.90;99.90;;;;;;5115471;28;20110;-55
2022/07/24 04:23:44;;;;;;;5.30;3.25;;;16.90;99.90;;;;;;5115148;28;20112;-54
2022/07/24 04:26:10;;;;;;;5.10;3.30;;;16.90;99.90;;;;;;5115051;28;20494;-53
2022/07/24 04:28:36;;;;;;;4.18;3.30;;;16.80;99.90;;;;;;5115811;28;20024;-53
2022/07/24 04:31:02;;;;;;;3.90;3.28;;;16.80;99.90;;;;;;5115297;28;20031;-51
2022/07/24 04:33:28;;;;;;;3.50;3.20;;;16.80;99.90;;;;;;5114986;28;20487;-50
2022/07/24 04:35:53;;;;;;;4.88;3.72;;;16.80;99.90;;;;;;5096848;28;20122;-53
2022/07/24 04:38:19;;;;;;;5.20;3.60;;;16.80;99.90;;;;;;5114869;28;20038;-54
2022/07/24 04:40:45;;;;;;;5.03;3.60;;;16.70;99.90;;;;;;5114680;28;20084;-53
2022/07/24 04:43:11;;;;;;;4.72;3.72;;;16.70;99.90;;;;;;5115023;28;20027;-52
2022/07/24 04:45:36;;;;;;;4.28;3.42;;;16.80;99.90;;;;;;5115046;28;20396;-55
2022/07/24 04:48:02;;;;;;;5.20;3.20;;;16.70;99.90;;;;;;5115633;28;20050;-53
2022/07/24 04:50:28;;;;;;;7.32;3.55;;;16.70;99.90;;;;;;5115001;28;20117;-53
2022/07/24 04:52:54;;;;;;;4.38;3.22;;;16.70;99.90;;;;;;5114703;28;20099;-55
2022/07/24 04:55:20;;;;;;;7.32;3.40;;;16.70;99.90;;;;;;5114588;28;20494;-53
2022/07/24 04:57:46;;;;;;;6.28;3.60;;;16.70;99.90;;;;;;5114864;28;20433;-52
2022/07/24 05:00:13;;;;;;;6.97;4.55;;;16.60;99.90;;;;;;5114814;28;20558;-54
2022/07/24 05:02:39;;;;;;;7.22;4.82;;;16.50;99.90;;;;;;5114741;28;20080;-52
2022/07/24 05:05:05;;;;;;;6.82;5.05;;;16.40;99.90;;;;;;5096281;28;20085;-53
2022/07/24 05:07:31;;;;;;;6.90;5.20;;;16.50;99.90;;;;;;5114516;28;20020;-54
2022/07/24 05:09:57;;;;;;;6.95;4.75;;;16.50;99.90;;;;;;5114434;28;20011;-54
2022/07/24 05:12:24;;;;;;;5.45;4.95;;;16.50;99.90;;;;;;5114527;28;20100;-54
2022/07/24 05:14:49;;;;;;;5.18;4.10;;;16.50;99.90;;;;;;5114545;28;20011;-54
2022/07/24 05:17:15;;;;;;;4.45;3.90;;;16.50;99.90;;;;;;5114371;28;20525;-54
2022/07/24 05:19:41;;;;;;;6.32;4.00;;;16.50;99.90;;;;;;5114615;28;20123;-53
2022/07/24 05:22:07;;;;;;;4.78;3.70;;;16.50;99.90;;;;;;5114302;28;20476;-52
2022/07/24 05:24:33;;;;;;;5.30;3.53;;;16.60;99.90;;;;;;5113923;28;20031;-53
2022/07/24 05:26:58;;;;;;;5.07;3.30;;;16.50;99.90;;;;;;5114567;28;20067;-56
2022/07/24 05:29:24;;;;;;;5.57;3.75;;;16.60;99.90;;;;;;5114330;28;20414;-54
2022/07/24 05:31:51;;;;;;;4.90;3.63;;;16.60;99.90;;;;;;5114044;28;20061;-55
2022/07/24 05:34:17;;;;;;;4.78;3.60;;;16.60;99.90;;;;;;5114427;28;20028;-54
2022/07/24 05:36:43;;;;;;;5.03;3.58;;;16.70;99.90;;;;;;5113328;28;20055;-54
2022/07/24 05:39:08;;;;;;;4.80;3.45;;;16.80;99.90;;;;;;5113692;28;20455;-54
2022/07/24 05:41:34;;;;;;;4.50;3.50;;;16.90;99.90;;;;;;5114293;28;20027;-54
2022/07/24 05:44:00;;;;;;;4.13;3.65;;;17.00;99.90;;;;;;5095683;28;20392;-54
2022/07/24 05:46:26;;;;;;;5.50;3.65;;;17.10;99.90;;;;;;5113805;28;20035;-53
2022/07/24 05:48:51;;;;;;;4.63;4.07;;;17.20;99.90;;;;;;5113681;28;20537;-53
2022/07/24 05:51:17;;;;;;;7.50;4.57;;;17.20;99.90;;;;;;5113657;28;20024;-55
2022/07/24 05:53:43;;;;;;;6.05;4.40;;;17.30;99.90;;;;;;5113102;28;20480;-54
2022/07/24 05:56:08;;;;;;;6.30;4.50;;;17.30;99.90;;;;;;5113736;28;20055;-55
2022/07/24 05:58:35;;;;;;;4.80;3.50;;;17.40;99.90;;;;;;5113752;28;20023;-54
2022/07/24 06:01:01;;;;;;;4.57;3.60;;;17.60;99.90;;;;;;5113513;28;20110;-53
2022/07/24 06:03:26;;;;;;;4.00;3.20;;;17.80;99.90;;;;;;5113323;28;20111;-54
2022/07/24 06:05:52;;;;;;;4.68;3.70;;;18.00;99.90;;;;;;5113474;28;20031;-54
2022/07/24 06:08:18;;;;;;;4.70;3.40;;;18.20;99.90;;;;;;5113130;28;20067;-55
2022/07/24 06:10:44;;;;;;;7.65;3.50;;;18.40;99.90;;;;;;5113430;28;20027;-52
2022/07/24 06:13:09;;;;;;;7.20;3.65;;;18.70;99.90;;;;;;5113368;28;20023;-54
2022/07/24 06:15:35;;;;;;;3.63;3.20;;;19.20;99.90;;;;;;5113295;28;20549;-55
2022/07/24 06:18:01;;;;;;;5.47;3.22;;;19.50;99.90;;;;;;5113255;28;20032;-55
2022/07/24 06:20:27;;;;;;;3.80;3.25;;;19.80;99.90;;;;;;5113502;28;20160;-54
2022/07/24 06:22:52;;;;;;;5.90;4.00;;;20.40;99.90;;;;;;5112622;28;20080;-55
2022/07/24 06:25:18;;;;;;;6.15;4.30;;;20.90;99.90;;;;;;5112995;28;20365;-57
2022/07/24 06:27:47;;;;;;;6.25;3.65;;;20.90;99.90;;;;;;5113413;28;20027;-56
2022/07/24 06:30:18;;;;;;;5.10;3.80;;;21.20;99.90;;;;;;5113066;28;20094;-54
2022/07/24 06:32:44;;;;;;;4.13;3.28;;;21.30;99.90;;;;;;5112843;28;20578;-56
2022/07/24 06:35:11;;;;;;;5.93;3.50;;;21.30;99.90;;;;;;5113008;28;20053;-56
2022/07/24 06:37:37;;;;;;;8.95;3.35;;;21.70;99.90;;;;;;5112467;28;20050;-55
2022/07/24 06:40:04;;;;;;;4.32;3.17;;;22.00;99.90;;;;;;5112740;28;20032;-55
2022/07/24 06:42:30;;;;;;;3.67;3.05;;;22.60;99.90;;;;;;5112789;28;20031;-55
2022/07/24 06:44:56;;;;;;;7.80;3.58;;;23.10;99.90;;;;;;5112608;28;20027;-56
2022/07/24 06:47:21;;;;;;;6.18;3.00;;;23.20;99.90;;;;;;5112771;28;20357;-55
2022/07/24 06:49:47;;;;;;;3.45;3.00;;;24.70;99.90;;;;;;5094999;28;20027;-56
2022/07/24 06:52:13;;;;;;;4.40;2.95;;;24.30;99.90;;;;;;5112325;28;20041;-56
2022/07/24 06:54:39;;;;;;;4.25;3.10;;;24.90;99.90;;;;;;5112681;28;20034;-56
2022/07/24 06:57:04;;;;;;;3.83;2.67;;;24.70;99.90;;;;;;5112601;28;20125;-56
2022/07/24 06:59:30;;;;;;;3.10;2.80;;;25.10;99.90;;;;;;5112471;28;20040;-55
2022/07/24 07:01:56;;;;;;;5.13;2.97;;;25.40;99.90;;;;;;5112250;28;20040;-57
2022/07/24 07:04:21;;;;;;;5.22;2.58;;;25.60;99.90;;;;;;5111724;28;20063;-56
2022/07/24 07:06:47;;;;;;;3.40;2.90;;;26.40;99.80;;;;;;5112281;28;20127;-56
2022/07/24 07:09:13;;;;;;;3.08;2.30;;;26.60;98.90;;;;;;5112609;28;20452;-56
2022/07/24 07:11:39;;;;;;;4.07;2.75;;;26.70;98.30;;;;;;5112381;28;20034;-55
2022/07/24 07:14:05;;;;;;;3.72;2.63;;;27.20;97.60;;;;;;5112626;28;20430;-57
2022/07/24 07:16:30;;;;;;;2.72;2.40;;;27.40;97.50;;;;;;5112121;28;20035;-55
2022/07/24 07:18:56;;;;;;;3.53;2.88;;;27.70;96.40;;;;;;5112386;28;20034;-55
2022/07/24 07:21:22;;;;;;;3.20;2.40;;;27.80;96.00;;;;;;5112044;28;20020;-55
2022/07/24 07:23:47;;;;;;;3.45;2.58;;;27.90;96.70;;;;;;5112351;28;20028;-57
2022/07/24 07:26:13;;;;;;;6.80;2.92;;;29.30;94.50;;;;;;5112066;28;20452;-57
2022/07/24 07:28:39;;;;;;;3.85;2.55;;;30.60;92.10;;;;;;5112638;28;20023;-57
2022/07/24 07:31:04;;;;;;;3.88;2.60;;;30.20;91.60;;;;;;5093890;28;20024;-54
2022/07/24 07:33:30;;;;;;;3.90;2.83;;;29.90;91.80;;;;;;5093937;28;20024;-53
2022/07/24 07:35:56;;;;;;;5.60;3.08;;;30.60;90.80;;;;;;5111862;28;20054;-54
2022/07/24 07:38:21;;;;;;;4.55;3.58;;;30.40;90.40;;;;;;5111815;28;20031;-56
2022/07/24 07:40:47;;;;;;;5.53;4.68;;;30.80;89.20;;;;;;5112045;28;20110;-56
2022/07/24 07:43:13;;;;;;;6.38;4.53;;;30.80;88.80;;;;;;5112495;28;20097;-54
2022/07/24 07:45:39;;;;;;;8.98;5.30;;;31.00;87.50;;;;;;5111909;28;20511;-55
2022/07/24 07:48:05;;;;;;;8.13;5.05;;;31.30;87.20;;;;;;5111970;28;20020;-52
2022/07/24 07:50:30;;;;;;;9.13;6.00;;;30.30;89.00;;;;;;5111697;28;20373;-55
2022/07/24 07:52:56;;;;;;;8.45;6.18;;;30.10;88.80;;;;;;5112278;28;20031;-53
2022/07/24 07:55:22;;;;;;;10.27;7.47;;;30.60;88.60;;;;;;5112113;28;20068;-55
2022/07/24 07:57:48;;;;;;;10.40;7.95;;;31.30;88.40;;;;;;5112022;28;20395;-56
2022/07/24 08:00:15;;;;;;;12.45;8.52;;;31.60;86.00;;;;;;5111701;28;20395;-56
2022/07/24 08:02:41;;;;;;;13.82;10.02;;;32.60;85.60;;;;;;5112293;28;20111;-54
2022/07/24 08:05:07;;;;;;;12.60;9.45;;;32.40;83.60;;;;;;5111645;28;20098;-56
2022/07/24 08:07:33;;;;;;;15.75;11.43;;;32.00;87.00;;;;;;5111750;28;20038;-55
2022/07/24 08:09:59;;;;;;;19.98;12.52;;;32.40;84.20;;;;;;5111827;28;20384;-56
2022/07/24 08:12:24;;;;;;;21.13;13.73;;;33.90;80.70;;;;;;5093848;28;20035;-55
2022/07/24 08:14:50;;;;;;;22.27;14.45;;;33.80;79.70;;;;;;5111239;28;20080;-56
2022/07/24 08:17:18;;;;;;;20.40;13.73;;;35.10;78.30;;;;;;5115043;28;20396;-55
2022/07/24 08:19:45;;;;;;;20.67;14.63;;;34.40;77.20;;;;;;5115208;28;20020;-56
2022/07/24 08:22:11;;;;;;;21.40;15.88;;;34.10;77.00;;;;;;5115467;28;20050;-56
2022/07/24 08:24:38;;;;;;;22.17;15.50;;;34.30;76.80;;;;;;5115173;28;20464;-56
2022/07/24 08:27:04;;;;;;;26.13;17.25;;;33.50;77.80;;;;;;5115627;28;20039;-55
2022/07/24 08:29:29;;;;;;;27.48;18.13;;;34.20;77.20;;;;;;5115278;28;20392;-56
2022/07/24 08:31:55;;;;;;;23.83;17.48;;;34.50;76.40;;;;;;5115297;28;20177;-56
2022/07/24 08:34:21;;;;;;;24.75;17.88;;;34.50;77.70;;;;;;5115216;28;20023;-55
2022/07/24 08:36:46;;;;;;;25.35;19.13;;;35.10;76.40;;;;;;5114636;28;20046;-55
2022/07/24 08:39:13;;;;;;;20.27;14.45;;;34.70;75.10;;;;;;5115064;28;20042;-56
2022/07/24 08:41:39;;;;;;;23.67;16.90;;;35.80;73.10;;;;;;5115565;28;20499;-55
2022/07/24 08:44:05;;;;;;;24.60;16.58;;;35.60;73.40;;;;;;5115084;28;20023;-55
2022/07/24 08:46:32;;;;;;;19.45;14.40;;;35.30;73.10;;;;;;5115115;28;20055;-56
2022/07/24 08:48:58;;;;;;;21.10;15.00;;;36.10;73.50;;;;;;5114822;28;20019;-54
2022/07/24 08:51:33;;;;;;;19.27;15.57;;;35.00;72.90;;;;;;5115359;28;20069;-56
2022/07/24 08:53:59;;;;;;;21.35;15.00;;;35.10;73.30;;;;;;5115046;28;20445;-56
2022/07/24 08:56:25;;;;;;;22.45;14.63;;;35.40;73.00;;;;;;5114939;28;20092;-55
2022/07/24 08:58:51;;;;;;;25.27;17.23;;;37.50;71.10;;;;;;5114652;28;20479;-55
2022/07/24 09:01:17;;;;;;;23.23;16.60;;;36.70;71.00;;;;;;5114661;28;20115;-55
2022/07/24 09:03:44;;;;;;;22.23;15.50;;;37.40;71.20;;;;;;5114852;28;20027;-56
2022/07/24 09:06:10;;;;;;;18.42;13.27;;;37.60;69.00;;;;;;5114616;28;20151;-56
2022/07/24 09:08:41;;;;;;;16.88;13.40;;;38.70;70.20;;;;;;5115391;28;20072;-56
2022/07/24 09:11:09;;;;;;;18.02;13.43;;;38.30;69.90;;;;;;5114720;28;20505;-56
2022/07/24 09:16:25;;;;;;;18.35;13.07;;;39.30;67.00;;;;;;5114603;28;20407;-56
2022/07/24 09:19:13;;;;;;;18.98;14.13;;;39.60;68.40;;;;;;5114660;28;20020;-56
2022/07/24 09:21:41;;;;;;;19.48;13.77;;;40.00;67.20;;;;;;5114579;28;20024;-56
2022/07/24 09:24:22;;;;;;;18.55;13.57;;;41.10;64.60;;;;;;5114625;28;20035;-57
2022/07/24 09:26:53;;;;;;;14.60;12.13;;;42.50;62.50;;;;;;5113905;28;20526;-56
2022/07/24 09:29:21;;;;;;;15.07;11.82;;;41.50;64.10;;;;;;5113962;28;20020;-56
2022/07/24 09:32:01;;;;;;;13.07;9.63;;;42.60;61.50;;;;;;5114024;28;20040;-57
2022/07/24 09:34:29;;;;;;;10.43;8.88;;;41.30;61.20;;;;;;5114744;28;20020;-57
2022/07/24 09:37:06;;;;;;;10.23;8.05;;;41.30;60.40;;;;;;5114159;28;20496;-56
2022/07/24 09:39:36;;;;;;;9.95;8.10;;;41.70;60.20;;;;;;5114107;28;20031;-56
2022/07/24 09:42:04;;;;;;;10.55;7.80;;;41.60;60.90;;;;;;5114539;28;20042;-56
2022/07/24 09:44:31;;;;;;;10.70;7.30;;;42.00;60.30;;;;;;5095881;28;20016;-56
2022/07/24 09:47:00;;;;;;;11.00;7.53;;;41.40;60.20;;;;;;5113653;28;20118;-56
2022/07/24 09:49:27;;;;;;;9.88;8.35;;;43.70;58.60;;;;;;5114388;28;20027;-56
2022/07/24 09:52:05;;;;;;;9.60;7.53;;;41.80;57.70;;;;;;5113995;28;20039;-56
2022/07/24 09:54:32;;;;;;;10.10;7.13;;;41.60;59.70;;;;;;5114031;28;20122;-56
2022/07/24 09:57:14;;;;;;;8.75;7.65;;;43.30;57.60;;;;;;5114175;28;20547;-56
2022/07/24 09:59:42;;;;;;;10.15;7.38;;;43.00;57.80;;;;;;5113775;28;20076;-56
2022/07/24 10:02:11;;;;;;;9.15;7.53;;;43.60;56.00;;;;;;5113856;28;20050;-56
2022/07/24 10:04:39;;;;;;;11.40;7.40;;;43.70;56.70;;;;;;5113976;28;20020;-56
2022/07/24 10:07:09;;;;;;;9.40;7.20;;;46.20;57.20;;;;;;5113625;28;20067;-56
2022/07/24 10:09:35;;;;;;;10.73;6.90;;;46.60;54.30;;;;;;5095853;28;20015;-55
2022/07/24 10:12:03;;;;;;;9.90;6.70;;;45.90;53.60;;;;;;5113638;28;20034;-56
2022/07/24 10:14:29;;;;;;;8.82;6.80;;;46.60;51.60;;;;;;5113233;28;20035;-56
2022/07/24 10:17:05;;;;;;;9.00;6.78;;;45.50;52.80;;;;;;5113847;28;20475;-56
2022/07/24 10:19:47;;;;;;;7.88;6.65;;;44.70;52.50;;;;;;5113418;28;20395;-56
2022/07/24 10:22:20;;;;;;;7.53;6.70;;;45.40;53.60;;;;;;5113419;28;20024;-55
2022/07/24 10:24:56;;;;;;;7.35;6.60;;;47.10;54.00;;;;;;5113244;28;20032;-56
2022/07/24 10:27:26;;;;;;;7.40;6.35;;;45.40;55.10;;;;;;5113373;28;20643;-56
2022/07/24 10:29:55;;;;;;;10.38;7.18;;;41.10;55.20;;;;;;5113164;28;20028;-56
2022/07/24 10:32:22;;;;;;;18.27;6.47;;;40.10;56.80;;;;;;5113673;28;20030;-56
2022/07/24 10:34:57;;;;;;;8.73;6.95;;;39.50;56.90;;;;;;5113216;28;20020;-56
2022/07/24 10:37:47;;;;;;;9.23;6.68;;;40.00;55.60;;;;;;5112761;28;20457;-56
2022/07/24 10:40:32;;;;;;;8.60;6.60;;;40.50;56.20;;;;;;5112697;28;20496;-56
2022/07/24 10:43:10;;;;;;;7.55;6.32;;;40.10;57.50;;;;;;5112617;28;20020;-56
2022/07/24 10:46:06;;;;;;;10.10;6.53;;;39.60;55.60;;;;;;5113340;28;20168;-56
2022/07/24 10:48:36;;;;;;;8.00;6.43;;;39.20;56.40;;;;;;5112906;28;20410;-56
2022/07/24 10:51:06;;;;;;;9.02;6.25;;;38.10;58.20;;;;;;5112803;28;20020;-55
2022/07/24 10:53:38;;;;;;;8.13;6.47;;;37.40;56.60;;;;;;5112844;28;20088;-56
2022/07/24 10:56:28;;;;;;;7.95;5.80;;;36.90;58.60;;;;;;5113281;28;20031;-56
2022/07/24 10:59:26;;;;;;;7.05;5.72;;;38.00;56.40;;;;;;5112448;28;20392;-55
2022/07/24 11:01:53;;;;;;;9.30;6.32;;;37.40;56.90;;;;;;5112067;28;20484;-56
2022/07/24 11:04:19;;;;;;;7.95;5.70;;;36.80;57.70;;;;;;5112660;28;20500;-56
2022/07/24 11:06:50;;;;;;;7.97;6.28;;;39.30;57.30;;;;;;5112604;28;20060;-56
2022/07/24 11:09:17;;;;;;;7.45;6.22;;;40.80;56.30;;;;;;5112652;28;20028;-56
2022/07/24 11:11:52;;;;;;;7.60;6.30;;;38.00;56.20;;;;;;5112870;28;20024;-55
2022/07/24 11:14:37;;;;;;;8.48;6.18;;;38.40;57.40;;;;;;5112530;28;20035;-56
2022/07/24 11:17:38;;;;;;;8.52;6.35;;;38.00;57.10;;;;;;5111101;28;20497;-55
2022/07/24 11:20:06;;;;;;;10.52;6.65;;;38.90;58.00;;;;;;5112468;28;20023;-56
2022/07/24 11:22:58;;;;;;;8.15;6.40;;;37.80;57.40;;;;;;5112613;28;20039;-55
2022/07/24 11:25:30;;;;;;;8.88;7.25;;;38.30;57.70;;;;;;5108462;28;20122;-56
2022/07/24 11:28:05;;;;;;;9.90;6.85;;;37.00;59.10;;;;;;5112131;28;20053;-56
2022/07/24 11:30:31;;;;;;;9.27;7.03;;;37.20;59.20;;;;;;5112497;28;20032;-56
2022/07/24 11:32:58;;;;;;;10.48;7.35;;;37.20;58.10;;;;;;5112764;28;20034;-55
2022/07/24 11:35:35;;;;;;;9.45;7.28;;;35.70;59.70;;;;;;5112535;28;20023;-56
2022/07/24 11:38:02;;;;;;;7.88;7.07;;;36.40;59.40;;;;;;5111943;28;20047;-56
2022/07/24 11:40:28;;;;;;;8.93;7.30;;;37.40;58.20;;;;;;5112223;28;20077;-57
2022/07/24 11:42:59;;;;;;;10.55;7.60;;;37.70;57.90;;;;;;5111792;28;20421;-55
2022/07/24 11:45:25;;;;;;;10.05;6.82;;;37.00;58.30;;;;;;5112609;28;20024;-56
2022/07/24 11:47:54;;;;;;;8.73;6.72;;;37.10;59.80;;;;;;5094104;28;20024;-56
2022/07/24 11:50:21;;;;;;;9.63;6.43;;;38.70;58.00;;;;;;5112085;28;20036;-55
2022/07/24 11:52:47;;;;;;;6.57;5.90;;;38.20;57.50;;;;;;5116181;28;20028;-56
2022/07/24 11:55:16;;;;;;;11.32;6.10;;;37.30;58.10;;;;;;5116295;28;20062;-56
2022/07/24 11:57:46;;;;;;;8.38;5.30;;;36.70;59.60;;;;;;5116625;28;20080;-56
2022/07/24 12:00:15;;;;;;;6.70;5.25;;;37.20;58.20;;;;;;5116194;28;20396;-56
2022/07/24 12:02:46;;;;;;;7.18;5.97;;;38.10;60.40;;;;;;5116363;28;20020;-56
2022/07/24 12:05:12;;;;;;;6.45;5.82;;;37.60;58.10;;;;;;5116272;28;20019;-56
2022/07/24 12:07:38;;;;;;;6.78;5.45;;;37.60;59.20;;;;;;5116002;28;20452;-56
2022/07/24 12:10:04;;;;;;;10.27;6.18;;;37.90;59.30;;;;;;5116156;28;20047;-56
2022/07/24 12:12:33;;;;;;;9.48;6.03;;;37.70;58.10;;;;;;5115671;28;20036;-56
2022/07/24 12:15:06;;;;;;;6.57;4.63;;;37.60;59.30;;;;;;5116240;28;20038;-56
2022/07/24 12:17:55;;;;;;;5.10;4.13;;;37.00;59.40;;;;;;5116005;28;20072;-56
2022/07/24 12:20:29;;;;;;;7.53;5.18;;;36.90;61.00;;;;;;5115719;28;20042;-56
2022/07/24 12:22:55;;;;;;;6.28;4.50;;;36.70;60.00;;;;;;5115997;28;20046;-56
2022/07/24 12:25:23;;;;;;;4.70;4.18;;;36.20;59.60;;;;;;5115837;28;20027;-55
2022/07/24 12:27:48;;;;;;;7.82;4.30;;;36.80;61.30;;;;;;5115830;28;20039;-56
2022/07/24 12:30:27;;;;;;;4.85;4.28;;;36.70;59.60;;;;;;5115719;28;20043;-56
2022/07/24 12:32:55;;;;;;;4.55;3.90;;;36.30;60.10;;;;;;5115749;28;20027;-56
2022/07/24 12:35:22;;;;;;;4.90;4.20;;;37.30;60.50;;;;;;5115865;28;20034;-55
2022/07/24 12:37:47;;;;;;;6.57;4.38;;;37.60;59.60;;;;;;5115348;28;20052;-56
2022/07/24 12:40:31;;;;;;;4.50;4.10;;;37.70;59.30;;;;;;5114977;28;20031;-56
2022/07/24 12:42:59;;;;;;;5.07;4.50;;;38.20;61.40;;;;;;5115458;28;20023;-56
2022/07/24 12:45:25;;;;;;;4.43;3.88;;;38.40;58.90;;;;;;5115237;28;20080;-56
2022/07/24 12:48:06;;;;;;;5.50;3.92;;;38.80;60.20;;;;;;5115785;28;20046;-55